createdAt,value
2023-03-26T00:02:04.556Z,8.90
2023-03-26T00:04:34.544Z,9.10
2023-03-26T00:07:03.269Z,14.00
2023-03-26T00:09:31.365Z,9.50
2023-03-26T00:11:59.439Z,9.80
2023-03-26T00:14:29.305Z,10.50
2023-03-26T00:16:57.217Z,9.20
2023-03-26T00:19:25.579Z,11.10
2023-03-26T00:21:53.683Z,9.30
2023-03-26T00:24:21.613Z,9.20
2023-03-26T00:26:54.371Z,9.20
2023-03-26T00:29:28.190Z,7.50
2023-03-26T00:34:24.963Z,11.00
2023-03-26T00:36:56.002Z,6.60
2023-03-26T00:39:25.679Z,9.40
2023-03-26T00:41:54.864Z,9.50
2023-03-26T00:44:23.512Z,7.40
2023-03-26T00:46:51.506Z,8.30
2023-03-26T00:49:19.409Z,9.20
2023-03-26T00:51:47.390Z,9.30
2023-03-26T00:54:15.761Z,7.70
2023-03-26T00:56:43.680Z,8.00
2023-03-26T00:59:11.933Z,13.70
2023-03-26T01:01:39.976Z,9.50
2023-03-26T01:04:27.970Z,11.10
2023-03-26T01:07:04.162Z,9.70
2023-03-26T01:09:36.023Z,10.80
2023-03-26T01:12:08.201Z,9.00
2023-03-26T01:14:36.273Z,10.90
2023-03-26T01:17:07.210Z,9.40
2023-03-26T01:19:50.562Z,9.80
2023-03-26T01:22:25.373Z,8.60
2023-03-26T01:24:56.485Z,7.30
2023-03-26T01:27:39.082Z,9.60
2023-03-26T01:30:29.458Z,9.30
2023-03-26T01:33:16.296Z,8.80
2023-03-26T01:36:10.114Z,12.50
2023-03-26T01:38:52.087Z,8.20
2023-03-26T01:41:46.937Z,10.60
2023-03-26T01:44:30.416Z,9.70
2023-03-26T01:47:04.681Z,11.40
2023-03-26T01:49:32.707Z,9.10
2023-03-26T01:52:00.740Z,9.60
2023-03-26T01:54:31.792Z,9.90
2023-03-26T01:57:27.751Z,8.10
2023-03-26T02:00:12.294Z,9.20
2023-03-26T02:02:55.196Z,10.60
2023-03-26T02:05:32.801Z,9.60
2023-03-26T02:08:12.019Z,8.40
2023-03-26T02:10:44.383Z,7.70
2023-03-26T02:13:13.306Z,11.20
2023-03-26T02:15:41.621Z,10.40
2023-03-26T02:18:13.567Z,11.00
2023-03-26T02:20:41.861Z,10.60
2023-03-26T02:23:09.929Z,9.40
2023-03-26T02:25:39.975Z,10.60
2023-03-26T02:28:07.893Z,8.20
2023-03-26T02:30:35.807Z,8.50
2023-03-26T02:33:03.840Z,10.50
2023-03-26T02:35:31.850Z,11.00
2023-03-26T02:38:00.046Z,8.70
2023-03-26T02:40:27.927Z,10.40
2023-03-26T02:42:55.738Z,8.90
2023-03-26T02:45:23.749Z,8.40
2023-03-26T02:47:52.344Z,8.50
2023-03-26T02:50:20.394Z,10.20
2023-03-26T02:52:49.972Z,17.80
2023-03-26T02:55:18.009Z,12.50
2023-03-26T02:57:45.873Z,9.90
2023-03-26T03:00:14.378Z,11.00
2023-03-26T03:02:44.471Z,10.20
2023-03-26T03:05:12.698Z,11.30
2023-03-26T03:07:40.713Z,8.90
2023-03-26T03:10:10.118Z,9.70
2023-03-26T03:12:38.035Z,11.80
2023-03-26T03:15:07.261Z,13.50
2023-03-26T03:17:35.630Z,10.00
2023-03-26T03:20:04.519Z,9.80
2023-03-26T03:22:33.612Z,9.10
2023-03-26T03:25:01.798Z,9.80
2023-03-26T03:27:30.902Z,11.60
2023-03-26T03:29:59.261Z,13.50
2023-03-26T03:32:27.738Z,12.20
2023-03-26T03:34:55.597Z,12.10
2023-03-26T03:37:24.717Z,12.30
2023-03-26T03:39:52.679Z,15.00
2023-03-26T03:42:20.809Z,12.20
2023-03-26T03:44:48.759Z,10.10
2023-03-26T03:47:16.669Z,13.60
2023-03-26T03:49:44.453Z,15.20
2023-03-26T03:52:12.266Z,10.70
2023-03-26T03:54:40.128Z,12.00
2023-03-26T03:57:08.011Z,15.30
2023-03-26T03:59:35.899Z,12.50
2023-03-26T04:02:03.905Z,11.70
2023-03-26T04:04:32.898Z,11.60
2023-03-26T04:07:01.335Z,13.00
2023-03-26T04:09:29.250Z,13.10
2023-03-26T04:11:57.153Z,10.70
2023-03-26T04:14:25.178Z,10.40
2023-03-26T04:16:53.074Z,11.50
2023-03-26T04:19:21.282Z,10.90
2023-03-26T04:21:49.596Z,10.10
2023-03-26T04:24:17.542Z,11.80
2023-03-26T04:26:48.235Z,15.30
2023-03-26T04:29:18.374Z,9.80
2023-03-26T04:31:47.243Z,16.10
2023-03-26T04:34:24.435Z,11.80
2023-03-26T04:36:55.970Z,12.30
2023-03-26T04:39:29.349Z,14.40
2023-03-26T04:41:57.985Z,13.60
2023-03-26T04:44:26.147Z,9.50
2023-03-26T04:46:55.289Z,12.20
2023-03-26T04:49:23.320Z,12.20
2023-03-26T04:51:51.472Z,13.00
2023-03-26T04:54:22.438Z,14.50
2023-03-26T04:56:56.829Z,12.40
2023-03-26T04:59:31.574Z,12.10
2023-03-26T05:02:00.368Z,12.30
2023-03-26T05:04:36.819Z,11.70
2023-03-26T05:07:05.112Z,14.10
2023-03-26T05:09:33.385Z,11.90
2023-03-26T05:12:01.474Z,11.60
2023-03-26T05:14:29.518Z,9.10
2023-03-26T05:16:57.582Z,9.30
2023-03-26T05:19:25.409Z,10.90
2023-03-26T05:21:53.217Z,11.70
2023-03-26T05:24:21.093Z,12.70
2023-03-26T05:26:49.071Z,12.40
2023-03-26T05:29:17.966Z,14.40
2023-03-26T05:31:46.095Z,15.70
2023-03-26T05:34:14.097Z,9.40
2023-03-26T05:36:42.642Z,12.00
2023-03-26T05:39:10.859Z,11.90
2023-03-26T05:41:38.784Z,12.60
2023-03-26T05:44:06.757Z,11.40
2023-03-26T05:46:34.809Z,9.90
2023-03-26T05:49:02.687Z,9.00
2023-03-26T05:51:30.686Z,11.60
2023-03-26T05:53:58.593Z,11.90
2023-03-26T05:56:26.512Z,10.30
2023-03-26T05:58:57.255Z,8.80
2023-03-26T06:01:25.668Z,9.50
2023-03-26T06:03:53.762Z,9.70
2023-03-26T06:06:21.940Z,12.30
2023-03-26T06:09:01.560Z,8.00
2023-03-26T06:11:32.210Z,8.80
2023-03-26T06:14:01.081Z,7.60
2023-03-26T06:16:29.061Z,7.70
2023-03-26T06:18:57.831Z,7.00
2023-03-26T06:21:26.754Z,9.10
2023-03-26T06:23:55.503Z,9.60
2023-03-26T06:26:23.530Z,7.60
2023-03-26T06:28:51.468Z,8.10
2023-03-26T06:31:19.606Z,7.70
2023-03-26T06:33:48.955Z,8.00
2023-03-26T06:36:16.988Z,7.50
2023-03-26T06:38:44.933Z,7.00
2023-03-26T06:41:13.141Z,9.60
2023-03-26T06:43:40.956Z,8.30
2023-03-26T06:46:09.263Z,8.40
2023-03-26T06:48:37.257Z,9.50
2023-03-26T06:51:05.891Z,7.70
2023-03-26T06:53:33.821Z,9.20
2023-03-26T06:56:03.255Z,7.90
2023-03-26T06:58:31.380Z,9.60
2023-03-26T07:00:59.685Z,8.20
2023-03-26T07:03:28.386Z,7.20
2023-03-26T07:05:56.525Z,10.50
2023-03-26T07:08:26.311Z,8.60
2023-03-26T07:10:54.622Z,5.90
2023-03-26T07:13:22.743Z,7.50
2023-03-26T07:15:50.826Z,7.30
2023-03-26T07:18:18.657Z,4.60
2023-03-26T07:20:46.906Z,6.20
2023-03-26T07:23:15.776Z,5.10
2023-03-26T07:25:44.100Z,4.90
2023-03-26T07:28:39.464Z,7.90
2023-03-26T07:31:24.819Z,8.60
2023-03-26T07:34:04.041Z,6.60
2023-03-26T07:37:03.727Z,6.10
2023-03-26T07:39:57.952Z,7.30
2023-03-26T07:42:34.460Z,9.70
2023-03-26T07:45:22.625Z,7.70
2023-03-26T07:47:53.639Z,7.00
2023-03-26T07:50:24.094Z,6.10
2023-03-26T07:52:55.058Z,9.90
2023-03-26T07:55:25.050Z,8.80
2023-03-26T07:57:55.600Z,7.90
2023-03-26T08:00:42.776Z,10.20
2023-03-26T08:03:22.871Z,8.30
2023-03-26T08:05:50.714Z,6.60
2023-03-26T08:08:44.543Z,7.10
2023-03-26T08:11:24.150Z,9.00
2023-03-26T08:14:07.115Z,5.00
2023-03-26T08:16:41.922Z,4.20
2023-03-26T08:19:33.330Z,6.30
2023-03-26T08:22:28.785Z,6.60
2023-03-26T08:25:18.490Z,4.50
2023-03-26T08:28:21.824Z,4.80
2023-03-26T08:30:50.556Z,5.30
2023-03-26T08:33:20.666Z,8.60
2023-03-26T08:35:49.261Z,9.50
2023-03-26T08:38:20.563Z,20.00
2023-03-26T08:41:10.421Z,8.40
2023-03-26T08:43:55.098Z,6.70
2023-03-26T08:46:42.181Z,9.20
2023-03-26T08:49:48.128Z,9.00
2023-03-26T08:52:28.345Z,4.60
2023-03-26T08:55:35.347Z,3.40
2023-03-26T08:58:53.356Z,4.10
2023-03-26T09:01:56.826Z,4.70
2023-03-26T09:04:43.259Z,5.50
2023-03-26T09:07:22.929Z,6.50
2023-03-26T09:10:12.146Z,8.10
2023-03-26T09:13:15.401Z,6.20
2023-03-26T09:16:11.677Z,6.00
2023-03-26T09:19:18.163Z,2.50
2023-03-26T09:22:04.561Z,5.80
2023-03-26T09:24:32.536Z,43.10
2023-03-26T09:27:30.519Z,4.50
2023-03-26T09:30:01.264Z,4.60
2023-03-26T09:32:39.121Z,4.30
2023-03-26T09:35:16.107Z,6.10
2023-03-26T09:38:11.772Z,7.20
2023-03-26T09:40:59.523Z,5.70
2023-03-26T09:43:42.348Z,4.30
2023-03-26T09:46:21.025Z,4.10
2023-03-26T09:48:54.562Z,5.50
2023-03-26T09:51:53.563Z,17.70
2023-03-26T09:54:44.298Z,8.10
2023-03-26T09:57:15.509Z,5.00
2023-03-26T09:59:57.693Z,3.00
2023-03-26T10:02:47.659Z,12.30
2023-03-26T10:05:20.077Z,21.40
2023-03-26T10:08:04.076Z,9.20
2023-03-26T10:10:44.274Z,4.30
2023-03-26T10:13:35.527Z,8.00
2023-03-26T10:16:15.609Z,9.20
2023-03-26T10:19:07.816Z,8.70
2023-03-26T10:21:53.559Z,6.60
2023-03-26T10:24:34.526Z,5.00
2023-03-26T10:27:11.494Z,5.60
2023-03-26T10:30:00.289Z,4.70
2023-03-26T10:33:16.126Z,4.80
2023-03-26T10:35:50.302Z,4.80
2023-03-26T10:38:21.319Z,8.50
2023-03-26T10:41:06.094Z,5.30
2023-03-26T10:44:09.059Z,8.70
2023-03-26T10:46:44.541Z,6.60
2023-03-26T10:49:40.321Z,8.30
2023-03-26T10:52:12.638Z,7.20
2023-03-26T10:55:04.198Z,6.00
2023-03-26T10:57:52.445Z,8.80
2023-03-26T11:00:26.839Z,10.30
2023-03-26T11:03:16.667Z,7.50
2023-03-26T11:06:02.942Z,6.40
2023-03-26T11:08:38.181Z,6.30
2023-03-26T11:11:24.175Z,7.40
2023-03-26T11:14:03.676Z,7.00
2023-03-26T11:16:40.754Z,7.80
2023-03-26T11:19:17.001Z,7.80
2023-03-26T11:21:54.403Z,3.00
2023-03-26T11:24:46.950Z,4.60
2023-03-26T11:27:32.720Z,4.60
2023-03-26T11:30:34.334Z,4.30
2023-03-26T11:33:06.711Z,4.10
2023-03-26T11:35:46.789Z,4.70
2023-03-26T11:38:29.005Z,4.30
2023-03-26T11:40:59.308Z,3.70
2023-03-26T11:43:35.553Z,3.50
2023-03-26T11:46:06.394Z,5.40
2023-03-26T11:48:39.820Z,4.40
2023-03-26T11:51:10.829Z,6.50
2023-03-26T11:53:39.956Z,6.20
2023-03-26T11:56:18.402Z,3.80
2023-03-26T11:59:01.839Z,5.80
2023-03-26T12:01:50.714Z,4.90
2023-03-26T12:04:25.734Z,5.00
2023-03-26T12:06:57.746Z,5.10
2023-03-26T12:09:26.735Z,3.20
2023-03-26T12:12:01.296Z,3.00
2023-03-26T12:14:33.262Z,4.90
2023-03-26T12:17:05.290Z,4.70
2023-03-26T12:19:42.542Z,2.40
2023-03-26T12:22:30.862Z,3.00
2023-03-26T12:25:21.266Z,2.10
2023-03-26T12:28:08.166Z,4.60
2023-03-26T12:30:41.310Z,3.70
2023-03-26T12:33:34.167Z,4.60
2023-03-26T12:36:23.301Z,4.90
2023-03-26T12:39:43.163Z,4.60
2023-03-26T12:43:40.534Z,4.30
2023-03-26T12:44:54.390Z,3.50
2023-03-26T12:47:58.452Z,1.90
2023-03-26T12:50:34.464Z,3.60
2023-03-26T12:53:12.492Z,4.10
2023-03-26T12:55:49.840Z,3.60
2023-03-26T12:58:51.496Z,1.70
2023-03-26T13:01:47.492Z,5.90
2023-03-26T13:04:43.635Z,2.70
2023-03-26T13:07:38.409Z,4.70
2023-03-26T13:10:27.958Z,4.40
2023-03-26T13:13:14.965Z,4.90
2023-03-26T13:15:52.885Z,3.10
2023-03-26T13:18:48.903Z,3.20
2023-03-26T13:21:39.076Z,4.10
2023-03-26T13:24:13.771Z,4.30
2023-03-26T13:26:56.444Z,1.60
2023-03-26T13:30:01.617Z,2.60
2023-03-26T13:32:44.050Z,2.00
2023-03-26T13:35:34.595Z,1.70
2023-03-26T13:38:20.698Z,1.40
2023-03-26T13:41:11.780Z,3.60
2023-03-26T13:43:54.281Z,1.90
2023-03-26T13:46:34.523Z,2.70
2023-03-26T13:49:08.256Z,3.90
2023-03-26T13:51:45.019Z,4.00
2023-03-26T13:54:44.687Z,5.70
2023-03-26T13:57:41.588Z,3.00
2023-03-26T14:00:21.857Z,2.70
2023-03-26T14:02:58.147Z,2.00
2023-03-26T14:05:47.235Z,3.20
2023-03-26T14:08:31.743Z,5.10
2023-03-26T14:11:21.535Z,3.70
2023-03-26T14:14:01.284Z,8.90
2023-03-26T14:16:36.528Z,3.10
2023-03-26T14:19:36.088Z,2.60
2023-03-26T14:22:35.297Z,3.70
2023-03-26T14:25:08.679Z,3.00
2023-03-26T14:28:12.975Z,3.00
2023-03-26T14:31:08.770Z,3.90
2023-03-26T14:34:00.439Z,2.80
2023-03-26T14:36:53.001Z,5.30
2023-03-26T14:40:04.999Z,3.30
2023-03-26T14:42:43.429Z,2.90
2023-03-26T14:45:49.798Z,1.80
2023-03-26T14:48:36.661Z,1.80
2023-03-26T14:51:41.512Z,3.00
2023-03-26T14:54:14.798Z,4.70
2023-03-26T14:57:31.737Z,3.30
2023-03-26T15:00:22.427Z,4.00
2023-03-26T15:03:34.829Z,2.00
2023-03-26T15:06:15.403Z,3.40
2023-03-26T15:09:11.540Z,1.90
2023-03-26T15:12:20.935Z,3.00
2023-03-26T15:15:17.193Z,5.40
2023-03-26T15:17:58.596Z,4.70
2023-03-26T15:20:39.666Z,4.50
2023-03-26T15:23:47.492Z,4.50
2023-03-26T15:26:46.122Z,5.80
2023-03-26T15:29:36.915Z,3.90
2023-03-26T15:32:35.020Z,7.00
2023-03-26T15:35:19.927Z,4.60
2023-03-26T15:38:09.080Z,4.80
2023-03-26T15:40:49.971Z,5.70
2023-03-26T15:43:23.136Z,2.70
2023-03-26T15:46:15.009Z,4.30
2023-03-26T15:49:14.619Z,3.30
2023-03-26T15:51:47.608Z,2.60
2023-03-26T15:54:25.732Z,5.50
2023-03-26T15:57:16.559Z,2.30
2023-03-26T16:00:32.041Z,1.60
2023-03-26T16:03:11.686Z,1.40
2023-03-26T16:06:02.343Z,3.20
2023-03-26T16:08:53.170Z,4.40
2023-03-26T16:12:09.278Z,2.90
2023-03-26T16:14:47.610Z,3.30
2023-03-26T16:17:23.335Z,11.30
2023-03-26T16:20:33.166Z,4.70
2023-03-26T16:23:06.224Z,5.00
2023-03-26T16:25:53.137Z,4.60
2023-03-26T16:28:29.307Z,7.50
2023-03-26T16:31:36.579Z,4.90
2023-03-26T16:34:08.356Z,7.50
2023-03-26T16:36:44.320Z,8.20
2023-03-26T16:39:19.181Z,6.00
2023-03-26T16:41:53.063Z,6.50
2023-03-26T16:44:56.785Z,6.40
2023-03-26T16:48:03.771Z,10.00
2023-03-26T16:50:50.108Z,9.80
2023-03-26T16:53:41.887Z,9.30
2023-03-26T16:56:28.071Z,10.20
2023-03-26T16:59:01.841Z,9.30
2023-03-26T17:01:45.969Z,8.90
2023-03-26T17:07:01.769Z,8.80
2023-03-26T17:09:58.566Z,9.40
2023-03-26T17:12:26.308Z,8.10
2023-03-26T17:15:36.809Z,10.90
2023-03-26T17:18:35.829Z,8.50
2023-03-26T17:21:11.302Z,11.50
2023-03-26T17:24:06.471Z,10.50
2023-03-26T17:26:52.215Z,5.50
2023-03-26T17:29:52.191Z,7.00
2023-03-26T17:32:21.613Z,6.90
2023-03-26T17:34:58.316Z,8.10
2023-03-26T17:37:55.915Z,8.10
2023-03-26T17:40:51.584Z,5.20
2023-03-26T17:43:50.075Z,8.00
2023-03-26T17:46:39.439Z,8.00
2023-03-26T17:49:13.925Z,10.10
2023-03-26T17:51:52.602Z,7.50
2023-03-26T17:54:34.815Z,16.40
2023-03-26T17:57:11.179Z,8.50
2023-03-26T17:59:41.139Z,10.40
2023-03-26T18:02:16.316Z,11.80
2023-03-26T18:04:48.277Z,10.60
2023-03-26T18:07:32.000Z,10.50
2023-03-26T18:10:33.526Z,8.30
2023-03-26T18:13:35.499Z,13.70
2023-03-26T18:16:15.847Z,9.30
2023-03-26T18:18:57.826Z,11.50
2023-03-26T18:21:37.625Z,10.80
2023-03-26T18:24:21.898Z,10.30
2023-03-26T18:26:56.507Z,12.00
2023-03-26T18:29:27.561Z,15.50
2023-03-26T18:31:58.255Z,13.90
2023-03-26T18:34:29.668Z,15.40
2023-03-26T18:37:18.040Z,13.80
2023-03-26T18:39:58.132Z,12.60
2023-03-26T18:42:28.334Z,13.50
2023-03-26T18:44:59.842Z,16.00
2023-03-26T18:47:31.675Z,15.00
2023-03-26T18:50:00.175Z,16.00
2023-03-26T18:52:31.771Z,16.80
2023-03-26T18:55:01.724Z,14.00
2023-03-26T18:57:29.979Z,17.80
2023-03-26T19:00:15.582Z,15.00
2023-03-26T19:02:45.288Z,15.00
2023-03-26T19:05:15.522Z,14.70
2023-03-26T19:07:46.430Z,14.60
2023-03-26T19:10:18.939Z,17.80
2023-03-26T19:12:56.021Z,17.60
2023-03-26T19:15:27.221Z,17.30
2023-03-26T19:18:03.835Z,17.80
2023-03-26T19:20:39.224Z,20.10
2023-03-26T19:23:13.374Z,20.30
2023-03-26T19:25:51.383Z,23.00
2023-03-26T19:28:25.833Z,20.70
2023-03-26T19:30:57.708Z,24.10
2023-03-26T19:33:34.596Z,18.60
2023-03-26T19:36:18.070Z,22.80
2023-03-26T19:38:50.269Z,19.50
2023-03-26T19:41:32.438Z,28.10
2023-03-26T19:44:03.302Z,21.00
2023-03-26T19:46:34.549Z,23.40
2023-03-26T19:49:30.072Z,23.30
2023-03-26T19:52:12.709Z,25.10
2023-03-26T19:55:00.143Z,24.10
2023-03-26T19:57:33.108Z,24.40
2023-03-26T20:00:01.017Z,28.80
2023-03-26T20:02:29.120Z,23.30
2023-03-26T20:04:57.645Z,22.00
2023-03-26T20:07:35.399Z,23.00
2023-03-26T20:10:05.680Z,20.70
2023-03-26T20:12:33.873Z,20.30
2023-03-26T20:15:02.156Z,20.90
2023-03-26T20:17:31.115Z,18.90
2023-03-26T20:19:59.783Z,19.60
2023-03-26T20:22:27.822Z,20.50
2023-03-26T20:24:55.707Z,20.70
2023-03-26T20:27:23.616Z,25.70
2023-03-26T20:29:51.548Z,21.10
2023-03-26T20:32:26.291Z,21.70
2023-03-26T20:34:55.102Z,19.60
2023-03-26T20:37:23.412Z,23.90
2023-03-26T20:39:51.430Z,21.10
2023-03-26T20:42:19.426Z,23.90
2023-03-26T20:44:47.438Z,24.60
2023-03-26T20:47:15.335Z,24.70
2023-03-26T20:49:43.241Z,21.40
2023-03-26T20:52:13.782Z,26.60
2023-03-26T20:54:42.011Z,24.90
2023-03-26T20:57:13.778Z,23.30
2023-03-26T20:59:42.228Z,22.70
2023-03-26T21:02:12.110Z,21.80
2023-03-26T21:04:40.284Z,23.90
2023-03-26T21:07:17.752Z,21.50
2023-03-26T21:09:48.716Z,22.70
2023-03-26T21:12:28.129Z,19.80
2023-03-26T21:14:56.813Z,23.00
2023-03-26T21:17:25.015Z,20.90
2023-03-26T21:19:53.510Z,24.30
2023-03-26T21:22:43.438Z,23.20
2023-03-26T21:25:21.087Z,22.40
2023-03-26T21:28:00.733Z,25.10
2023-03-26T21:30:28.977Z,27.50
2023-03-26T21:32:56.945Z,23.10
2023-03-26T21:35:25.361Z,26.90
2023-03-26T21:37:54.202Z,27.30
2023-03-26T21:40:22.345Z,23.70
2023-03-26T21:42:53.473Z,26.40
2023-03-26T21:45:22.328Z,26.50
2023-03-26T21:47:50.789Z,23.10
2023-03-26T21:50:21.968Z,28.80
2023-03-26T21:52:51.836Z,23.30
2023-03-26T21:55:22.105Z,28.80
2023-03-26T21:58:11.148Z,29.40
2023-03-26T22:01:20.799Z,29.10
2023-03-26T22:04:00.501Z,25.80
2023-03-26T22:06:43.894Z,32.40
2023-03-26T22:09:13.741Z,33.20
2023-03-26T22:11:42.188Z,30.60
2023-03-26T22:14:13.256Z,29.50
2023-03-26T22:16:41.690Z,34.30
2023-03-26T22:19:10.823Z,33.90
2023-03-26T22:21:38.895Z,29.50
2023-03-26T22:24:07.560Z,36.40
2023-03-26T22:26:36.884Z,33.00
2023-03-26T22:29:05.417Z,32.70
2023-03-26T22:31:33.553Z,31.70
2023-03-26T22:34:01.541Z,27.00
2023-03-26T22:36:29.637Z,29.60
2023-03-26T22:38:57.575Z,26.40
2023-03-26T22:41:26.204Z,29.60
2023-03-26T22:43:54.961Z,27.00
2023-03-26T22:46:23.808Z,31.20
2023-03-26T22:48:51.766Z,29.80
2023-03-26T22:51:19.743Z,34.40
2023-03-26T22:53:47.734Z,26.70
2023-03-26T22:56:15.886Z,29.50
2023-03-26T22:58:43.717Z,26.40
2023-03-26T23:01:16.898Z,27.60
2023-03-26T23:03:45.005Z,30.60
2023-03-26T23:06:13.486Z,29.10
2023-03-26T23:08:41.894Z,27.60
2023-03-26T23:11:16.243Z,27.30
2023-03-26T23:13:45.347Z,26.10
2023-03-26T23:16:14.331Z,27.20
2023-03-26T23:18:42.437Z,28.40
2023-03-26T23:21:19.679Z,22.10
2023-03-26T23:23:49.449Z,26.20
2023-03-26T23:26:17.875Z,29.80
2023-03-26T23:28:46.059Z,29.70
2023-03-26T23:31:14.595Z,25.50
2023-03-26T23:33:46.715Z,27.90
2023-03-26T23:36:18.361Z,25.40
2023-03-26T23:38:48.623Z,26.00
2023-03-26T23:41:21.540Z,27.60
2023-03-26T23:43:56.880Z,27.50
2023-03-26T23:46:30.999Z,28.70
2023-03-26T23:49:03.484Z,26.80
2023-03-26T23:51:32.163Z,27.60
2023-03-26T23:54:00.656Z,26.70
2023-03-26T23:56:29.911Z,25.90
2023-03-26T23:58:59.374Z,31.20
